Time;durP1;ratioP1;P1;durP2;ratioP2;P2;SDS_P1;SDS_P2;PMS_P1;PMS_P2;Temp;Humidity;BMP_temperature;BMP_pressure;BME280_temperature;BME280_humidity;BME280_pressure;Samples;Min_cycle;Max_cycle;Signal;HPM_P1;HPM_P2
2022/07/04 00:00:42;;;;;;;;;;;26.90;41.30;;;;;;1556826;74;1942;-67
2022/07/04 00:02:44;;;;;;;;;;;26.90;41.30;;;;;;1558445;74;750;-68
2022/07/04 00:04:46;;;;;;;;;;;26.90;41.30;;;;;;1554214;74;677;-68
2022/07/04 00:06:48;;;;;;;;;;;26.90;41.30;;;;;;1573705;74;702;-69
2022/07/04 00:08:49;;;;;;;;;;;26.90;41.40;;;;;;1572559;74;1145;-67
2022/07/04 00:10:51;;;;;;;;;;;26.80;41.40;;;;;;1557594;74;706;-68
2022/07/04 00:12:53;;;;;;;;;;;26.80;41.50;;;;;;1566555;74;750;-68
2022/07/04 00:14:55;;;;;;;;;;;26.80;41.50;;;;;;1560287;74;805;-68
2022/07/04 00:16:57;;;;;;;;;;;26.80;41.50;;;;;;1556475;74;846;-68
2022/07/04 00:18:59;;;;;;;;;;;26.80;41.50;;;;;;1570009;74;1143;-68
2022/07/04 00:21:01;;;;;;;;;;;26.90;41.60;;;;;;1564687;74;1936;-69
2022/07/04 00:23:02;;;;;;;;;;;26.90;41.50;;;;;;1565419;74;674;-68
2022/07/04 00:25:05;;;;;;;;;;;26.80;41.60;;;;;;1563632;74;700;-68
2022/07/04 00:27:07;;;;;;;;;;;26.80;41.60;;;;;;1561639;74;690;-68
2022/07/04 00:29:08;;;;;;;;;;;26.80;41.60;;;;;;1566658;74;1169;-67
2022/07/04 00:31:10;;;;;;;;;;;26.80;41.60;;;;;;1571670;74;864;-68
2022/07/04 00:33:13;;;;;;;;;;;26.70;41.60;;;;;;1556846;74;756;-68
2022/07/04 00:35:15;;;;;;;;;;;26.80;41.60;;;;;;1555847;74;821;-67
2022/07/04 00:37:17;;;;;;;;;;;26.90;41.70;;;;;;1570339;74;714;-68
2022/07/04 00:39:19;;;;;;;;;;;26.80;41.70;;;;;;1569977;74;1170;-68
2022/07/04 00:41:20;;;;;;;;;;;26.80;41.80;;;;;;1556364;74;1938;-68
2022/07/04 00:43:23;;;;;;;;;;;26.80;41.70;;;;;;1551265;74;1546;-68
2022/07/04 00:45:25;;;;;;;;;;;26.80;41.70;;;;;;1575184;74;714;-69
2022/07/04 00:47:27;;;;;;;;;;;26.90;41.80;;;;;;1563996;75;719;-69
2022/07/04 00:49:29;;;;;;;;;;;26.80;41.80;;;;;;1564467;74;1231;-68
2022/07/04 00:51:31;;;;;;;;;;;26.80;41.80;;;;;;1569151;74;659;-68
2022/07/04 00:53:32;;;;;;;;;;;26.90;41.80;;;;;;1570372;74;766;-68
2022/07/04 00:55:34;;;;;;;;;;;26.90;41.80;;;;;;1574533;74;731;-68
2022/07/04 00:57:36;;;;;;;;;;;26.80;41.90;;;;;;1571509;74;724;-69
2022/07/04 00:59:38;;;;;;;;;;;26.90;41.90;;;;;;1570352;74;1171;-69
2022/07/04 01:01:40;;;;;;;;;;;26.80;41.90;;;;;;1549088;74;1927;-69
2022/07/04 01:03:42;;;;;;;;;;;26.80;41.90;;;;;;1556861;74;730;-68
2022/07/04 01:05:44;;;;;;;;;;;26.80;42.00;;;;;;1554660;74;695;-68
2022/07/04 01:07:46;;;;;;;;;;;26.70;42.00;;;;;;1581137;74;739;-68
2022/07/04 01:09:48;;;;;;;;;;;26.80;42.10;;;;;;1565459;74;1127;-68
2022/07/04 01:11:50;;;;;;;;;;;26.80;42.10;;;;;;1561340;74;664;-68
2022/07/04 01:13:54;;;;;;;;;;;26.80;42.10;;;;;;1562490;74;920;-68
2022/07/04 01:15:55;;;;;;;;;;;26.70;42.20;;;;;;1559997;74;628;-68
2022/07/04 01:17:57;;;;;;;;;;;26.70;42.20;;;;;;1567325;74;752;-68
2022/07/04 01:19:59;;;;;;;;;;;26.80;42.20;;;;;;1562488;74;1142;-68
2022/07/04 01:22:03;;;;;;;;;;;26.80;42.30;;;;;;1554652;74;1945;-68
2022/07/04 01:24:05;;;;;;;;;;;26.70;42.30;;;;;;1559579;74;1631;-68
2022/07/04 01:26:07;;;;;;;;;;;26.80;42.30;;;;;;1564774;74;653;-67
2022/07/04 01:28:09;;;;;;;;;;;26.80;42.20;;;;;;1571812;74;677;-67
2022/07/04 01:30:11;;;;;;;;;;;26.80;42.30;;;;;;1559616;73;3144;-61
2022/07/04 01:32:13;;;;;;;;;;;26.70;42.30;;;;;;1575053;75;665;-60
2022/07/04 01:34:15;;;;;;;;;;;26.80;42.30;;;;;;1562740;74;693;-61
2022/07/04 01:36:17;;;;;;;;;;;26.80;42.40;;;;;;1558964;75;653;-61
2022/07/04 01:38:19;;;;;;;;;;;26.70;42.40;;;;;;1567631;74;734;-61
2022/07/04 01:40:21;;;;;;;;;;;26.80;42.40;;;;;;1585007;73;1563;-60
2022/07/04 01:42:22;;;;;;;;;;;26.70;42.40;;;;;;1588196;74;1941;-60
2022/07/04 01:44:24;;;;;;;;;;;26.70;42.50;;;;;;1590376;73;698;-60
2022/07/04 01:46:26;;;;;;;;;;;26.70;42.40;;;;;;1594531;73;732;-62
2022/07/04 01:48:28;;;;;;;;;;;26.70;42.50;;;;;;1593954;74;710;-61
2022/07/04 01:50:30;;;;;;;;;;;26.70;42.50;;;;;;1593869;73;1132;-61
2022/07/04 01:52:32;;;;;;;;;;;26.70;42.60;;;;;;1587385;73;684;-63
2022/07/04 01:54:34;;;;;;;;;;;26.70;42.60;;;;;;1593737;73;644;-64
2022/07/04 01:56:36;;;;;;;;;;;26.70;42.60;;;;;;1591274;73;643;-62
2022/07/04 01:58:38;;;;;;;;;;;26.70;42.70;;;;;;1591280;73;705;-63
2022/07/04 02:02:59;;;;;;;;;;;26.70;42.70;;;;;;1592674;74;1873;-61
2022/07/04 02:05:01;;;;;;;;;;;26.70;42.70;;;;;;1589169;74;759;-63
2022/07/04 02:07:03;;;;;;;;;;;26.70;42.70;;;;;;1585556;73;683;-62
2022/07/04 02:09:18;;;;;;;;;;;26.70;42.70;;;;;;1594696;73;1139;-63
2022/07/04 02:11:20;;;;;;;;;;;26.70;42.70;;;;;;1590209;73;800;-62
2022/07/04 02:13:22;;;;;;;;;;;26.70;42.80;;;;;;1586315;73;656;-62
2022/07/04 02:15:24;;;;;;;;;;;26.70;42.80;;;;;;1590519;74;636;-63
2022/07/04 02:17:25;;;;;;;;;;;26.70;42.80;;;;;;1590612;73;714;-65
2022/07/04 02:19:27;;;;;;;;;;;26.70;42.80;;;;;;1582316;73;1144;-62
2022/07/04 02:21:29;;;;;;;;;;;26.70;42.70;;;;;;1589890;73;1940;-61
2022/07/04 02:23:31;;;;;;;;;;;26.70;42.80;;;;;;1582570;74;712;-61
2022/07/04 02:25:33;;;;;;;;;;;26.70;42.80;;;;;;1592405;73;676;-63
2022/07/04 02:27:35;;;;;;;;;;;26.70;42.80;;;;;;1590169;73;688;-63
2022/07/04 02:29:37;;;;;;;;;;;26.80;42.80;;;;;;1592024;73;1147;-63
2022/07/04 02:31:39;;;;;;;;;;;26.70;42.80;;;;;;1586089;73;725;-64
2022/07/04 02:33:41;;;;;;;;;;;26.70;42.80;;;;;;1591397;73;689;-62
2022/07/04 02:35:42;;;;;;;;;;;26.80;42.80;;;;;;1579380;73;738;-62
2022/07/04 02:37:44;;;;;;;;;;;26.80;42.80;;;;;;1594298;73;771;-61
2022/07/04 02:39:46;;;;;;;;;;;26.70;42.80;;;;;;1585662;73;1151;-61
2022/07/04 02:41:48;;;;;;;;;;;26.80;42.80;;;;;;1594629;74;1937;-62
2022/07/04 02:43:50;;;;;;;;;;;26.80;42.80;;;;;;1588250;73;596;-62
2022/07/04 02:45:52;;;;;;;;;;;26.80;42.90;;;;;;1584987;74;671;-63
2022/07/04 02:47:54;;;;;;;;;;;26.70;42.90;;;;;;1593168;74;784;-61
2022/07/04 02:49:56;;;;;;;;;;;26.70;42.90;;;;;;1594450;74;1144;-62
2022/07/04 02:51:57;;;;;;;;;;;26.70;42.80;;;;;;1581095;73;759;-61
2022/07/04 02:53:59;;;;;;;;;;;26.80;42.90;;;;;;1590159;74;673;-61
2022/07/04 02:56:06;;;;;;;;;;;26.70;42.90;;;;;;1593248;73;779;-62
2022/07/04 02:58:05;;;;;;;;;;;26.70;42.90;;;;;;1582126;73;1508;-66
2022/07/04 03:00:07;;;;;;;;;;;26.70;43.00;;;;;;1584240;74;1142;-62
2022/07/04 03:02:09;;;;;;;;;;;26.70;43.00;;;;;;1593908;73;1945;-64
2022/07/04 03:04:11;;;;;;;;;;;26.70;42.90;;;;;;1586849;74;670;-63
2022/07/04 03:06:13;;;;;;;;;;;26.70;43.00;;;;;;1591420;74;710;-61
2022/07/04 03:08:14;;;;;;;;;;;26.80;43.00;;;;;;1589920;73;671;-62
2022/07/04 03:10:16;;;;;;;;;;;26.70;42.90;;;;;;1593242;73;1169;-62
2022/07/04 03:12:18;;;;;;;;;;;26.80;42.90;;;;;;1588096;74;689;-61
2022/07/04 03:14:20;;;;;;;;;;;26.70;43.00;;;;;;1592342;73;580;-63
2022/07/04 03:16:22;;;;;;;;;;;26.70;43.00;;;;;;1590299;73;759;-63
2022/07/04 03:18:24;;;;;;;;;;;26.70;43.00;;;;;;1591826;74;750;-61
2022/07/04 03:20:26;;;;;;;;;;;26.70;43.00;;;;;;1580847;73;1105;-62
2022/07/04 03:22:28;;;;;;;;;;;26.70;43.10;;;;;;1594444;73;1937;-59
2022/07/04 03:24:30;;;;;;;;;;;26.80;43.10;;;;;;1583130;73;669;-61
2022/07/04 03:26:32;;;;;;;;;;;26.80;43.10;;;;;;1589914;73;650;-61
2022/07/04 03:28:34;;;;;;;;;;;26.70;43.10;;;;;;1588355;73;744;-62
2022/07/04 03:30:36;;;;;;;;;;;26.80;43.10;;;;;;1593212;74;1124;-61
2022/07/04 03:32:38;;;;;;;;;;;26.80;43.10;;;;;;1583235;73;1582;-63
2022/07/04 03:34:39;;;;;;;;;;;26.70;43.10;;;;;;1587310;74;673;-62
2022/07/04 03:36:41;;;;;;;;;;;26.70;43.10;;;;;;1585561;73;781;-61
2022/07/04 03:38:43;;;;;;;;;;;26.80;43.10;;;;;;1588179;73;718;-61
2022/07/04 03:40:45;;;;;;;;;;;26.80;43.10;;;;;;1593279;73;1095;-61
2022/07/04 03:42:47;;;;;;;;;;;26.70;43.10;;;;;;1592199;73;1956;-62
2022/07/04 03:44:49;;;;;;;;;;;26.80;43.20;;;;;;1591150;74;684;-61
2022/07/04 03:46:51;;;;;;;;;;;26.70;43.10;;;;;;1594220;74;691;-62
2022/07/04 03:48:53;;;;;;;;;;;26.80;43.10;;;;;;1590518;73;1143;-62
2022/07/04 03:50:55;;;;;;;;;;;26.80;43.20;;;;;;1594006;73;709;-61
2022/07/04 03:52:57;;;;;;;;;;;26.80;43.20;;;;;;1574577;74;723;-61
2022/07/04 03:54:58;;;;;;;;;;;26.70;43.20;;;;;;1592828;74;678;-61
2022/07/04 03:57:00;;;;;;;;;;;26.80;43.20;;;;;;1593789;73;670;-62
2022/07/04 03:59:02;;;;;;;;;;;26.80;43.20;;;;;;1591797;74;1251;-61
2022/07/04 04:01:04;;;;;;;;;;;26.80;43.10;;;;;;1594051;74;721;-63
2022/07/04 04:05:26;;;;;;;;;;;26.80;43.20;;;;;;1587037;73;1906;-62
2022/07/04 04:05:28;;;;;;;;;;;26.80;43.20;;;;;;1578956;73;842;-63
2022/07/04 04:07:31;;;;;;;;;;;26.80;43.20;;;;;;1593946;73;792;-63
2022/07/04 04:09:32;;;;;;;;;;;26.70;43.30;;;;;;1587946;73;1231;-62
2022/07/04 04:11:34;;;;;;;;;;;26.70;43.30;;;;;;1585339;73;683;-64
2022/07/04 04:13:36;;;;;;;;;;;26.70;43.30;;;;;;1588929;73;697;-61
2022/07/04 04:15:38;;;;;;;;;;;26.80;43.30;;;;;;1591836;73;777;-63
2022/07/04 04:17:40;;;;;;;;;;;26.80;43.40;;;;;;1591557;73;684;-61
2022/07/04 04:19:42;;;;;;;;;;;26.80;43.30;;;;;;1592340;73;1145;-60
2022/07/04 04:21:44;;;;;;;;;;;26.80;43.40;;;;;;1592285;73;751;-61
2022/07/04 04:23:46;;;;;;;;;;;26.90;43.30;;;;;;1587955;73;1949;-62
2022/07/04 04:25:47;;;;;;;;;;;26.80;43.40;;;;;;1592108;73;731;-64
2022/07/04 04:27:49;;;;;;;;;;;26.80;43.30;;;;;;1591440;73;663;-62
2022/07/04 04:29:51;;;;;;;;;;;26.80;43.40;;;;;;1595352;73;1545;-62
2022/07/04 04:31:53;;;;;;;;;;;26.70;43.40;;;;;;1591216;73;754;-62
2022/07/04 04:33:55;;;;;;;;;;;26.80;43.40;;;;;;1591079;74;732;-62
2022/07/04 04:35:57;;;;;;;;;;;26.80;43.40;;;;;;1581043;74;649;-63
2022/07/04 04:37:59;;;;;;;;;;;26.90;43.40;;;;;;1588755;73;700;-63
2022/07/04 04:40:01;;;;;;;;;;;26.80;43.40;;;;;;1590021;73;1151;-65
2022/07/04 04:42:03;;;;;;;;;;;26.90;43.30;;;;;;1592518;74;1932;-62
2022/07/04 04:44:05;;;;;;;;;;;26.80;43.40;;;;;;1584168;73;733;-64
2022/07/04 04:46:07;;;;;;;;;;;26.80;43.30;;;;;;1583616;74;755;-62
2022/07/04 04:48:09;;;;;;;;;;;26.70;43.30;;;;;;1592163;74;754;-64
2022/07/04 04:50:12;;;;;;;;;;;26.80;43.30;;;;;;1589609;73;1144;-64
2022/07/04 04:52:13;;;;;;;;;;;26.80;43.40;;;;;;1580511;73;708;-68
2022/07/04 04:54:15;;;;;;;;;;;26.70;43.30;;;;;;1582069;73;730;-64
2022/07/04 04:56:17;;;;;;;;;;;26.80;43.30;;;;;;1591397;73;755;-62
2022/07/04 04:58:20;;;;;;;;;;;26.70;43.30;;;;;;1594130;74;698;-64
2022/07/04 05:00:21;;;;;;;;;;;26.70;43.30;;;;;;1589912;73;1147;-63
2022/07/04 05:02:23;;;;;;;;;;;26.80;43.40;;;;;;1587853;73;1930;-65
2022/07/04 05:04:25;;;;;;;;;;;26.70;43.30;;;;;;1592001;73;761;-63
2022/07/04 05:06:27;;;;;;;;;;;26.80;43.40;;;;;;1589231;74;681;-61
2022/07/04 05:08:29;;;;;;;;;;;26.70;43.90;;;;;;1593483;73;662;-64
2022/07/04 05:10:31;;;;;;;;;;;26.80;43.60;;;;;;1587552;73;1151;-64
2022/07/04 05:12:33;;;;;;;;;;;26.80;43.40;;;;;;1589355;73;718;-64
2022/07/04 05:14:35;;;;;;;;;;;26.90;43.40;;;;;;1588603;73;678;-63
2022/07/04 05:16:37;;;;;;;;;;;26.80;43.40;;;;;;1593862;73;694;-63
2022/07/04 05:18:38;;;;;;;;;;;26.90;43.30;;;;;;1590772;74;868;-63
2022/07/04 05:20:40;;;;;;;;;;;27.00;43.90;;;;;;1592911;73;1092;-63
2022/07/04 05:22:42;;;;;;;;;;;27.00;43.90;;;;;;1575375;73;1953;-65
2022/07/04 05:24:44;;;;;;;;;;;26.90;43.10;;;;;;1593048;74;1565;-66
2022/07/04 05:26:46;;;;;;;;;;;27.10;43.80;;;;;;1594300;74;714;-67
2022/07/04 05:28:48;;;;;;;;;;;27.00;43.80;;;;;;1591945;73;755;-65
2022/07/04 05:30:50;;;;;;;;;;;27.00;43.80;;;;;;1589220;74;1163;-66
2022/07/04 05:32:52;;;;;;;;;;;27.00;43.90;;;;;;1590894;73;798;-69
2022/07/04 05:34:54;;;;;;;;;;;27.10;44.00;;;;;;1587751;73;758;-65
2022/07/04 05:36:56;;;;;;;;;;;26.90;43.30;;;;;;1592890;73;646;-64
2022/07/04 05:38:58;;;;;;;;;;;26.90;43.40;;;;;;1593124;73;1159;-65
2022/07/04 05:41:00;;;;;;;;;;;26.90;43.40;;;;;;1590879;73;723;-66
2022/07/04 05:43:02;;;;;;;;;;;26.90;43.50;;;;;;1587964;73;1958;-66
2022/07/04 05:45:04;;;;;;;;;;;26.90;43.60;;;;;;1589648;73;707;-67
2022/07/04 05:47:06;;;;;;;;;;;26.80;43.60;;;;;;1588915;73;663;-66
2022/07/04 05:49:08;;;;;;;;;;;26.80;43.70;;;;;;1594143;73;1146;-68
2022/07/04 05:51:10;;;;;;;;;;;26.80;43.70;;;;;;1589299;73;710;-67
2022/07/04 05:53:12;;;;;;;;;;;26.90;43.70;;;;;;1594583;73;706;-66
2022/07/04 05:55:14;;;;;;;;;;;26.80;43.80;;;;;;1592826;73;669;-67
2022/07/04 05:57:16;;;;;;;;;;;26.80;43.80;;;;;;1593503;73;728;-66
2022/07/04 05:59:17;;;;;;;;;;;26.70;43.80;;;;;;1592821;73;1145;-64
2022/07/04 06:01:19;;;;;;;;;;;26.70;43.80;;;;;;1590773;74;633;-66
2022/07/04 06:03:21;;;;;;;;;;;26.70;43.90;;;;;;1594525;73;1921;-66
2022/07/04 06:05:23;;;;;;;;;;;26.70;43.90;;;;;;1582322;73;870;-66
2022/07/04 06:07:25;;;;;;;;;;;26.70;43.90;;;;;;1593139;73;705;-67
2022/07/04 06:09:27;;;;;;;;;;;26.70;43.90;;;;;;1585371;73;1115;-66
2022/07/04 06:11:29;;;;;;;;;;;26.70;44.00;;;;;;1589352;73;663;-67
2022/07/04 06:13:31;;;;;;;;;;;26.70;44.00;;;;;;1577917;73;687;-66
2022/07/04 06:15:33;;;;;;;;;;;26.60;44.00;;;;;;1588741;74;697;-66
2022/07/04 06:17:35;;;;;;;;;;;26.70;44.10;;;;;;1580181;73;696;-65
2022/07/04 06:19:36;;;;;;;;;;;26.70;44.10;;;;;;1574381;73;1138;-67
2022/07/04 06:21:38;;;;;;;;;;;26.60;44.10;;;;;;1576608;73;1706;-68
2022/07/04 06:23:40;;;;;;;;;;;26.60;44.10;;;;;;1590625;74;1929;-69
2022/07/04 06:25:42;;;;;;;;;;;26.60;44.20;;;;;;1580294;73;709;-66
2022/07/04 06:27:44;;;;;;;;;;;26.60;44.10;;;;;;1591249;73;698;-70
2022/07/04 06:29:46;;;;;;;;;;;26.70;44.20;;;;;;1579765;73;1160;-67
2022/07/04 06:31:48;;;;;;;;;;;26.70;44.20;;;;;;1588582;73;787;-68
2022/07/04 06:36:09;;;;;;;;;;;26.60;44.20;;;;;;1587042;74;1616;-69
2022/07/04 06:38:12;;;;;;;;;;;26.60;44.20;;;;;;1589397;73;786;-67
2022/07/04 06:40:16;;;;;;;;;;;26.60;44.30;;;;;;1578393;73;1174;-68
2022/07/04 06:42:18;;;;;;;;;;;26.70;44.20;;;;;;1594654;74;756;-68
2022/07/04 06:44:19;;;;;;;;;;;26.60;44.30;;;;;;1586816;73;1917;-67
2022/07/04 06:46:21;;;;;;;;;;;26.60;44.20;;;;;;1592639;73;761;-67
2022/07/04 06:48:23;;;;;;;;;;;26.60;44.20;;;;;;1584049;74;1042;-65
2022/07/04 06:50:25;;;;;;;;;;;26.70;44.30;;;;;;1589576;74;1134;-67
2022/07/04 06:52:27;;;;;;;;;;;26.60;44.30;;;;;;1594249;73;584;-69
2022/07/04 06:54:29;;;;;;;;;;;26.70;44.40;;;;;;1591710;73;687;-68
2022/07/04 06:56:31;;;;;;;;;;;26.60;46.00;;;;;;1585223;74;684;-71
2022/07/04 06:58:33;;;;;;;;;;;26.70;44.90;;;;;;1590080;73;677;-66
2022/07/04 07:00:35;;;;;;;;;;;26.70;44.90;;;;;;1591652;73;1127;-66
2022/07/04 07:02:37;;;;;;;;;;;26.70;44.90;;;;;;1587229;74;703;-65
2022/07/04 07:04:40;;;;;;;;;;;26.70;45.00;;;;;;1587920;73;1933;-68
2022/07/04 07:06:42;;;;;;;;;;;26.70;45.00;;;;;;1583110;74;678;-64
2022/07/04 07:08:44;;;;;;;;;;;26.70;45.10;;;;;;1592567;74;744;-65
2022/07/04 07:10:46;;;;;;;;;;;26.70;45.20;;;;;;1593069;73;1133;-66
2022/07/04 07:12:48;;;;;;;;;;;26.60;45.20;;;;;;1585373;73;746;-69
2022/07/04 07:14:50;;;;;;;;;;;26.70;45.30;;;;;;1583946;73;821;-66
2022/07/04 07:16:52;;;;;;;;;;;26.60;45.40;;;;;;1593940;74;786;-67
2022/07/04 07:18:54;;;;;;;;;;;26.70;45.50;;;;;;1588176;73;1538;-67
2022/07/04 07:20:56;;;;;;;;;;;26.70;45.50;;;;;;1585459;74;646;-69
2022/07/04 07:22:58;;;;;;;;;;;26.60;45.60;;;;;;1588642;73;724;-66
2022/07/04 07:25:00;;;;;;;;;;;26.70;45.60;;;;;;1590542;73;1893;-66
2022/07/04 07:27:01;;;;;;;;;;;26.60;45.70;;;;;;1592059;73;690;-69
2022/07/04 07:29:04;;;;;;;;;;;26.60;45.70;;;;;;1591755;74;1155;-70
2022/07/04 07:31:06;;;;;;;;;;;26.60;45.70;;;;;;1602268;71;220321;-51
2022/07/04 07:33:07;;;;;;;;;;;26.70;45.90;;;;;;1615160;72;690;-55
2022/07/04 07:35:09;;;;;;;;;;;26.70;45.90;;;;;;1571832;73;663;-51
2022/07/04 07:37:11;;;;;;;;;;;26.70;45.90;;;;;;1587854;73;1172;-54
2022/07/04 07:39:13;;;;;;;;;;;26.60;46.00;;;;;;1601350;73;674;-54
2022/07/04 07:41:15;;;;;;;;;;;26.60;46.00;;;;;;1597105;73;714;-55
2022/07/04 07:43:17;;;;;;;;;;;26.60;46.00;;;;;;1601179;73;1929;-54
2022/07/04 07:45:19;;;;;;;;;;;26.60;46.00;;;;;;1591794;73;663;-52
2022/07/04 07:47:20;;;;;;;;;;;26.60;46.10;;;;;;1601572;73;1137;-55
2022/07/04 07:49:22;;;;;;;;;;;26.60;46.20;;;;;;1594783;73;728;-54
2022/07/04 07:51:24;;;;;;;;;;;26.70;46.10;;;;;;1596484;73;658;-54
2022/07/04 07:53:26;;;;;;;;;;;26.70;46.20;;;;;;1605422;73;638;-52
2022/07/04 07:55:28;;;;;;;;;;;26.60;46.20;;;;;;1597645;73;670;-53
2022/07/04 07:57:30;;;;;;;;;;;26.70;46.20;;;;;;1604382;73;1093;-54
2022/07/04 07:59:32;;;;;;;;;;;26.60;46.30;;;;;;1593916;73;689;-54
2022/07/04 08:01:34;;;;;;;;;;;26.70;46.20;;;;;;1591632;73;678;-52
2022/07/04 08:05:55;;;;;;;;;;;26.60;46.20;;;;;;1589207;73;1670;-54
2022/07/04 08:07:59;;;;;;;;;;;26.70;46.30;;;;;;1583722;73;1103;-54
2022/07/04 08:10:01;;;;;;;;;;;26.70;46.20;;;;;;1596133;73;649;-54
2022/07/04 08:12:03;;;;;;;;;;;26.70;46.20;;;;;;1599846;73;663;-53
2022/07/04 08:14:07;;;;;;;;;;;26.70;46.30;;;;;;1587654;73;1475;-55
2022/07/04 08:16:09;;;;;;;;;;;26.70;46.20;;;;;;1582393;73;1126;-54
2022/07/04 08:18:11;;;;;;;;;;;26.70;46.30;;;;;;1583312;73;741;-54
2022/07/04 08:20:13;;;;;;;;;;;26.70;46.30;;;;;;1586210;73;750;-55
2022/07/04 08:22:14;;;;;;;;;;;26.70;46.30;;;;;;1588796;73;657;-55
2022/07/04 08:24:16;;;;;;;;;;;26.70;46.30;;;;;;1590097;73;1937;-56
2022/07/04 08:26:18;;;;;;;;;;;26.80;46.30;;;;;;1597534;73;1189;-55
2022/07/04 08:28:20;;;;;;;;;;;26.80;46.30;;;;;;1607564;73;697;-54
2022/07/04 08:30:22;;;;;;;;;;;26.90;46.30;;;;;;1586728;73;648;-53
2022/07/04 08:32:24;;;;;;;;;;;26.90;46.30;;;;;;1592227;73;765;-56
2022/07/04 08:34:26;;;;;;;;;;;26.90;46.10;;;;;;1594368;73;701;-54
2022/07/04 08:36:28;;;;;;;;;;;27.00;46.70;;;;;;1592813;73;1156;-55
2022/07/04 08:38:29;;;;;;;;;;;27.10;46.40;;;;;;1576912;73;754;-55
2022/07/04 08:40:32;;;;;;;;;;;27.20;46.30;;;;;;1595962;73;632;-53
2022/07/04 08:42:40;;;;;;;;;;;27.20;46.00;;;;;;1593647;73;735;-55
2022/07/04 08:44:41;;;;;;;;;;;27.30;46.00;;;;;;1578368;73;1926;-52
2022/07/04 08:46:43;;;;;;;;;;;27.40;45.80;;;;;;1577843;73;1145;-53
2022/07/04 08:48:52;;;;;;;;;;;27.40;45.70;;;;;;1578760;73;675;-53
2022/07/04 08:50:56;;;;;;;;;;;27.50;45.70;;;;;;1583301;73;710;-55
2022/07/04 08:53:02;;;;;;;;;;;27.40;45.60;;;;;;1594201;73;671;-54
2022/07/04 08:59:48;;;;;;;;;;;27.40;45.50;;;;;;1593933;73;1881;-53
2022/07/04 09:01:48;;;;;;;;;;;27.40;45.60;;;;;;1589148;73;2027;-52
2022/07/04 09:03:50;;;;;;;;;;;27.40;45.60;;;;;;1582954;73;1934;-53
2022/07/04 09:05:52;;;;;;;;;;;27.40;45.70;;;;;;1591736;73;704;-54
2022/07/04 09:07:54;;;;;;;;;;;27.40;45.80;;;;;;1603246;73;1109;-55
2022/07/04 09:09:57;;;;;;;;;;;27.30;45.80;;;;;;1593598;73;1472;-53
2022/07/04 09:11:59;;;;;;;;;;;27.30;45.90;;;;;;1602561;73;664;-56
2022/07/04 09:14:00;;;;;;;;;;;27.30;46.00;;;;;;1592105;73;661;-53
2022/07/04 09:16:02;;;;;;;;;;;27.30;46.10;;;;;;1584466;73;794;-55
2022/07/04 09:18:04;;;;;;;;;;;27.30;46.30;;;;;;1602395;73;1099;-54
2022/07/04 09:20:16;;;;;;;;;;;27.20;46.30;;;;;;1577896;73;832;-54
2022/07/04 09:22:18;;;;;;;;;;;27.30;46.40;;;;;;1576172;73;658;-55
2022/07/04 09:24:38;;;;;;;;;;;27.20;46.50;;;;;;1577229;73;1933;-53
2022/07/04 09:26:46;;;;;;;;;;;27.20;46.50;;;;;;1574143;73;1129;-56
2022/07/04 09:28:51;;;;;;;;;;;27.20;46.70;;;;;;1573897;73;691;-54
2022/07/04 09:30:53;;;;;;;;;;;27.20;46.70;;;;;;1582694;73;661;-55
2022/07/04 09:33:04;;;;;;;;;;;27.20;46.70;;;;;;1585908;73;748;-54
2022/07/04 09:35:07;;;;;;;;;;;27.20;46.50;;;;;;1588490;73;1598;-55
2022/07/04 09:37:09;;;;;;;;;;;27.20;46.40;;;;;;1601286;73;1144;-55
2022/07/04 09:39:15;;;;;;;;;;;27.20;46.50;;;;;;1602093;73;1550;-54
2022/07/04 09:41:26;;;;;;;;;;;27.20;46.50;;;;;;1609450;73;667;-53
2022/07/04 09:43:28;;;;;;;;;;;27.20;46.20;;;;;;1601078;73;716;-53
2022/07/04 09:45:30;;;;;;;;;;;27.20;46.00;;;;;;1578556;73;1928;-55
2022/07/04 09:47:32;;;;;;;;;;;27.20;45.90;;;;;;1576572;73;1137;-53
2022/07/04 09:49:34;;;;;;;;;;;27.10;46.10;;;;;;1573363;73;643;-53
2022/07/04 09:51:40;;;;;;;;;;;27.20;46.00;;;;;;1577019;73;592;-55
2022/07/04 09:53:43;;;;;;;;;;;27.20;46.10;;;;;;1581490;73;699;-53
2022/07/04 09:55:49;;;;;;;;;;;27.10;46.20;;;;;;1579966;73;678;-53
2022/07/04 09:57:51;;;;;;;;;;;27.20;46.10;;;;;;1574931;73;1189;-54
2022/07/04 09:59:53;;;;;;;;;;;27.10;46.20;;;;;;1580257;73;813;-54
2022/07/04 10:02:02;;;;;;;;;;;27.10;46.40;;;;;;1588485;73;607;-55
2022/07/04 10:04:04;;;;;;;;;;;27.10;46.40;;;;;;1572045;73;1958;-53
2022/07/04 10:06:11;;;;;;;;;;;27.10;46.60;;;;;;1587377;73;1417;-53
2022/07/04 10:08:13;;;;;;;;;;;27.10;46.80;;;;;;1579756;73;677;-53
2022/07/04 10:10:24;;;;;;;;;;;27.10;46.80;;;;;;1587435;73;662;-54
2022/07/04 10:12:28;;;;;;;;;;;27.00;46.90;;;;;;1575712;73;1504;-52
2022/07/04 10:14:30;;;;;;;;;;;27.10;46.90;;;;;;1580769;73;673;-54
2022/07/04 10:16:31;;;;;;;;;;;27.00;47.00;;;;;;1583061;73;1179;-53
2022/07/04 10:18:34;;;;;;;;;;;27.00;47.00;;;;;;1587444;73;673;-53
2022/07/04 10:20:36;;;;;;;;;;;27.00;46.90;;;;;;1583188;73;1566;-56
2022/07/04 10:22:38;;;;;;;;;;;27.10;46.90;;;;;;1589573;73;704;-55
2022/07/04 10:24:40;;;;;;;;;;;27.10;46.90;;;;;;1596813;73;1925;-57
2022/07/04 10:26:42;;;;;;;;;;;27.10;46.80;;;;;;1589264;73;1144;-54
2022/07/04 10:28:44;;;;;;;;;;;27.10;46.90;;;;;;1583027;73;674;-57
2022/07/04 10:30:51;;;;;;;;;;;27.00;46.90;;;;;;1579697;73;701;-58
2022/07/04 10:32:53;;;;;;;;;;;27.00;47.00;;;;;;1586014;73;804;-58
2022/07/04 10:34:55;;;;;;;;;;;27.00;46.90;;;;;;1580763;73;1571;-55
2022/07/04 10:36:57;;;;;;;;;;;27.00;47.00;;;;;;1593199;73;1131;-53
2022/07/04 10:39:03;;;;;;;;;;;27.10;47.10;;;;;;1583482;73;693;-52
2022/07/04 10:41:08;;;;;;;;;;;27.10;47.00;;;;;;1584437;73;755;-56
2022/07/04 10:43:29;;;;;;;;;;;27.00;46.90;;;;;;1580178;73;684;-53
2022/07/04 10:45:33;;;;;;;;;;;27.00;47.00;;;;;;1602582;73;1951;-56
2022/07/04 10:47:35;;;;;;;;;;;27.00;47.00;;;;;;1573757;73;1134;-58
2022/07/04 10:49:37;;;;;;;;;;;27.00;47.10;;;;;;1588880;73;1432;-58
2022/07/04 10:51:48;;;;;;;;;;;27.10;46.90;;;;;;1580028;73;669;-54
2022/07/04 10:54:00;;;;;;;;;;;27.00;46.80;;;;;;1573984;73;885;-58
2022/07/04 10:56:21;;;;;;;;;;;27.00;46.80;;;;;;1585337;73;709;-58
2022/07/04 10:58:34;;;;;;;;;;;27.00;46.80;;;;;;1589525;73;687;-56
2022/07/04 11:00:36;;;;;;;;;;;27.00;46.80;;;;;;1563282;73;1027;-56
2022/07/04 11:02:38;;;;;;;;;;;27.00;46.60;;;;;;1595519;73;1493;-57
2022/07/04 11:04:47;;;;;;;;;;;27.00;46.60;;;;;;1590228;73;1911;-56
2022/07/04 11:06:54;;;;;;;;;;;27.00;46.50;;;;;;1583157;73;1138;-57
2022/07/04 11:09:12;;;;;;;;;;;27.10;46.50;;;;;;1616428;73;1593;-55
2022/07/04 11:11:16;;;;;;;;;;;27.10;46.30;;;;;;1584692;73;748;-54
2022/07/04 11:13:18;;;;;;;;;;;27.00;46.00;;;;;;1583515;73;1573;-57
2022/07/04 11:15:27;;;;;;;;;;;27.10;46.20;;;;;;1591871;73;707;-57
2022/07/04 11:17:34;;;;;;;;;;;27.00;46.30;;;;;;1582702;73;1529;-55
2022/07/04 11:19:36;;;;;;;;;;;27.10;46.20;;;;;;1588835;73;1774;-55
2022/07/04 11:21:38;;;;;;;;;;;27.00;46.30;;;;;;1604524;73;695;-56
2022/07/04 11:23:40;;;;;;;;;;;27.10;46.20;;;;;;1609938;73;670;-56
2022/07/04 11:25:42;;;;;;;;;;;27.10;46.10;;;;;;1594218;73;1926;-54
2022/07/04 11:27:44;;;;;;;;;;;27.10;46.10;;;;;;1578034;73;1131;-57
2022/07/04 11:29:51;;;;;;;;;;;27.10;46.00;;;;;;1581863;73;774;-56
2022/07/04 11:31:54;;;;;;;;;;;27.10;46.00;;;;;;1596843;73;1522;-57
2022/07/04 11:33:55;;;;;;;;;;;27.10;46.00;;;;;;1589427;73;1203;-53
2022/07/04 11:36:04;;;;;;;;;;;27.00;46.10;;;;;;1575327;73;679;-56
2022/07/04 11:38:06;;;;;;;;;;;27.10;46.10;;;;;;1569492;73;1177;-54
2022/07/04 11:45:02;;;;;;;;;;;27.10;46.30;;;;;;1583868;73;1929;-57
2022/07/04 11:47:05;;;;;;;;;;;27.00;46.30;;;;;;1585194;73;1664;-55
2022/07/04 11:49:10;;;;;;;;;;;27.00;46.30;;;;;;1568195;73;718;-54
2022/07/04 11:51:18;;;;;;;;;;;27.10;46.30;;;;;;1571604;73;674;-53
2022/07/04 11:53:20;;;;;;;;;;;27.10;46.40;;;;;;1577169;73;771;-56
2022/07/04 11:55:22;;;;;;;;;;;27.10;46.40;;;;;;1576899;73;834;-55
2022/07/04 11:57:25;;;;;;;;;;;27.10;46.40;;;;;;1578249;73;1142;-54
2022/07/04 11:59:30;;;;;;;;;;;27.10;46.40;;;;;;1579137;73;1622;-52
2022/07/04 12:01:31;;;;;;;;;;;27.10;46.40;;;;;;1572637;73;1601;-57
2022/07/04 12:03:33;;;;;;;;;;;27.10;46.40;;;;;;1580117;73;705;-55
2022/07/04 12:05:36;;;;;;;;;;;27.10;46.40;;;;;;1578567;73;1918;-55
2022/07/04 12:07:39;;;;;;;;;;;27.10;46.30;;;;;;1579430;73;1232;-56
2022/07/04 12:09:41;;;;;;;;;;;27.20;46.10;;;;;;1579212;73;589;-57
2022/07/04 12:11:52;;;;;;;;;;;27.20;46.00;;;;;;1595839;73;661;-54
2022/07/04 12:13:54;;;;;;;;;;;27.20;46.00;;;;;;1586130;73;1471;-55
2022/07/04 12:15:56;;;;;;;;;;;27.30;45.90;;;;;;1585065;73;623;-55
2022/07/04 12:17:58;;;;;;;;;;;27.20;45.70;;;;;;1583631;73;1082;-55
2022/07/04 12:20:01;;;;;;;;;;;27.30;45.70;;;;;;1586796;73;720;-55
2022/07/04 12:22:03;;;;;;;;;;;27.30;45.60;;;;;;1591920;73;693;-56
2022/07/04 12:24:05;;;;;;;;;;;27.30;45.50;;;;;;1580339;73;698;-55
2022/07/04 12:26:09;;;;;;;;;;;27.30;45.30;;;;;;1576722;73;1917;-55
2022/07/04 12:28:11;;;;;;;;;;;27.30;45.30;;;;;;1584334;73;1469;-53